Images are not to be used for flight planning purposes.

**Note**- If you are unable to view the images below, please switch to an alternate browser such as Internet Explorer. We are sorry for the inconvenience and are in the process of resolving this issue

SQL large aircraft parking
jpeg.jpg

KSQL METAR 062248Z 3SM BR OVC006 11/10 A3002

KSFO TAF 062110Z 0621/0724 27005KT 4SM BR OVC006 FM070600 VRB05KT P6SM OVC008 FM071300 15006KT 6SM -RA BR SCT008 OVC015 FM071800 26005KT P6SM VCSH SCT007 OVC012

KSJC TAF 062111Z 0621/0718 32005KT P6SM BKN015 FM070300 VRB04KT P6SM SCT007 OVC010 FM071500 12006KT P6SM VCSH SCT007 BKN015